Time;durP1;ratioP1;P1;durP2;ratioP2;P2;SDS_P1;SDS_P2;PMS_P1;PMS_P2;Temp;Humidity;BMP_temperature;BMP_pressure;BME280_temperature;BME280_humidity;BME280_pressure;Samples;Min_cycle;Max_cycle;Signal;HPM_P1;HPM_P2
2023/10/17 00:00:31;;;;;;;5.67;2.60;;;5.10;99.90;;;;;;10353338;28;20204;-76
2023/10/17 00:05:56;;;;;;;4.23;2.50;;;5.10;99.90;;;;;;10353278;28;20229;-76
2023/10/17 00:11:18;;;;;;;3.83;2.33;;;5.10;99.90;;;;;;10354370;28;20192;-77
2023/10/17 00:16:40;;;;;;;4.00;2.40;;;5.00;99.90;;;;;;10353710;28;20193;-76
2023/10/17 00:22:04;;;;;;;4.53;2.00;;;5.10;99.90;;;;;;10354433;28;20188;-76
2023/10/17 00:27:25;;;;;;;6.13;2.40;;;5.10;99.90;;;;;;10352352;28;20218;-76
2023/10/17 00:32:50;;;;;;;3.90;2.43;;;5.10;1.00;;;;;;10360878;28;20193;-76
2023/10/17 00:38:15;;;;;;;4.87;2.40;;;5.00;1.00;;;;;;10354958;28;20244;-76
2023/10/17 00:43:37;;;;;;;5.00;2.77;;;5.10;1.00;;;;;;10359790;28;20208;-76
2023/10/17 00:48:59;;;;;;;4.30;2.67;;;5.00;99.90;;;;;;10346593;28;20316;-77
2023/10/17 00:54:20;;;;;;;4.37;2.30;;;5.00;1.00;;;;;;10359566;28;20231;-76
2023/10/17 00:59:55;;;;;;;3.73;2.13;;;5.10;92.50;;;;;;10345526;28;20255;-76
2023/10/17 01:11:31;;;;;;;5.30;2.17;;;5.10;99.90;;;;;;10358762;28;20268;-76
2023/10/17 01:16:52;;;;;;;2.80;1.60;;;5.10;99.90;;;;;;10359449;28;20224;-76
2023/10/17 01:22:14;;;;;;;3.53;1.73;;;5.10;99.90;;;;;;10358507;28;20377;-76
2023/10/17 01:27:35;;;;;;;5.07;1.80;;;5.10;99.90;;;;;;10359090;28;20279;-76
2023/10/17 01:32:59;;;;;;;6.10;1.50;;;5.00;99.90;;;;;;10358428;28;20194;-76
2023/10/17 01:38:24;;;;;;;4.57;1.57;;;5.10;99.90;;;;;;10323403;28;20420;-76
2023/10/17 01:44:35;;;;;;;4.40;1.60;;;5.10;99.90;;;;;;10328040;28;20526;-76
2023/10/17 01:50:26;;;;;;;4.50;2.13;;;5.00;1.00;;;;;;10359869;28;20205;-76
2023/10/17 01:56:13;;;;;;;5.37;2.33;;;4.90;1.00;;;;;;10326672;28;20279;-76
2023/10/17 02:01:59;;;;;;;4.17;2.13;;;4.90;1.00;;;;;;10316905;28;20513;-77
2023/10/17 02:07:20;;;;;;;5.40;1.80;;;4.90;1.00;;;;;;10332090;28;20231;-76
2023/10/17 02:12:42;;;;;;;8.10;2.40;;;4.90;99.90;;;;;;10356396;28;20386;-76
2023/10/17 02:18:12;;;;;;;4.43;2.10;;;4.90;1.00;;;;;;10355960;28;20197;-76
2023/10/17 02:23:51;;;;;;;7.00;1.93;;;4.90;2.70;;;;;;10357223;28;20239;-77
2023/10/17 02:30:04;;;;;;;3.37;1.83;;;4.90;1.00;;;;;;10232912;29;20203;-77
2023/10/17 02:35:32;;;;;;;4.03;1.60;;;4.90;99.90;;;;;;10233037;29;20229;-77
2023/10/17 02:40:54;;;;;;;5.33;1.70;;;5.00;99.90;;;;;;10232567;29;20208;-75
2023/10/17 02:46:58;;;;;;;5.57;1.97;;;5.00;99.90;;;;;;10232325;29;20525;-74
2023/10/17 02:52:20;;;;;;;4.13;1.60;;;4.70;76.40;;;;;;10201377;29;20219;-75
2023/10/17 02:57:42;;;;;;;4.50;2.00;;;4.80;99.90;;;;;;10233351;28;20522;-74
2023/10/17 03:03:12;;;;;;;2.37;1.50;;;4.90;99.90;;;;;;10355140;28;20482;-74
2023/10/17 03:08:36;;;;;;;3.73;2.00;;;4.80;99.90;;;;;;10326858;28;20285;-75
2023/10/17 03:13:57;;;;;;;23.03;8.70;;;4.90;99.90;;;;;;10354501;28;20201;-74
2023/10/17 03:19:27;;;;;;;19.33;9.53;;;4.80;99.90;;;;;;10353881;28;20197;-75
2023/10/17 03:25:01;;;;;;;8.07;4.07;;;4.80;99.90;;;;;;10353964;28;20201;-74
2023/10/17 03:30:22;;;;;;;7.50;3.50;;;4.80;99.90;;;;;;10354954;28;20220;-75
2023/10/17 03:36:04;;;;;;;4.53;2.87;;;4.80;99.90;;;;;;10354631;28;20236;-75
2023/10/17 03:41:25;;;;;;;5.90;2.43;;;4.70;99.90;;;;;;10340193;28;20208;-75
2023/10/17 03:46:48;;;;;;;36.33;14.13;;;4.70;99.90;;;;;;10354050;28;20305;-74
2023/10/17 03:52:10;;;;;;;25.90;10.53;;;4.70;99.90;;;;;;10354280;28;20201;-75
2023/10/17 03:57:32;;;;;;;11.10;5.90;;;4.70;99.90;;;;;;10352762;28;20196;-76
2023/10/17 04:02:53;;;;;;;8.97;4.00;;;4.60;1.00;;;;;;10356553;28;20193;-75
2023/10/17 04:08:17;;;;;;;4.83;2.40;;;4.50;1.00;;;;;;10361064;28;20414;-77
2023/10/17 04:13:38;;;;;;;5.00;2.00;;;4.50;99.90;;;;;;10322108;28;20193;-77
2023/10/17 04:19:17;;;;;;;4.83;1.90;;;4.60;99.90;;;;;;10345602;28;20213;-74
2023/10/17 04:24:39;;;;;;;10.83;4.57;;;4.70;1.00;;;;;;10360405;28;20435;-77
2023/10/17 04:30:00;;;;;;;10.00;5.20;;;4.60;99.90;;;;;;10346490;28;20566;-77
2023/10/17 04:35:21;;;;;;;7.70;4.27;;;4.60;99.90;;;;;;10349843;28;20205;-76
2023/10/17 04:40:50;;;;;;;7.77;4.03;;;4.60;99.90;;;;;;10357965;28;20193;-77
2023/10/17 04:46:11;;;;;;;5.47;3.23;;;4.60;99.90;;;;;;10359592;28;20232;-76
2023/10/17 04:51:38;;;;;;;4.77;3.00;;;4.60;44.80;;;;;;10359261;28;20251;-77
2023/10/17 04:56:59;;;;;;;3.53;2.87;;;4.60;22.80;;;;;;10359464;28;20566;-77
2023/10/17 06:21:06;;;;;;;4.63;2.70;;;5.60;1.00;;;;;;10357104;28;20216;-77
2023/10/17 06:26:46;;;;;;;4.00;2.20;;;5.90;99.90;;;;;;10356040;28;20231;-77
2023/10/17 06:32:48;;;;;;;8.23;3.40;;;6.00;1.00;;;;;;10355692;28;20197;-77
2023/10/17 06:38:01;;;;;;;7.80;2.93;;;6.10;99.90;;;;;;10356003;28;20232;-78
2023/10/17 06:43:28;;;;;;;9.67;4.23;;;6.80;1.00;;;;;;10355695;28;20253;-78
2023/10/17 06:48:49;;;;;;;7.57;4.27;;;7.50;1.00;;;;;;10355288;28;20224;-77
2023/10/17 06:54:13;;;;;;;4.50;2.50;;;8.30;1.00;;;;;;10355765;28;20198;-77
2023/10/17 06:59:35;;;;;;;3.37;1.67;;;9.50;99.90;;;;;;10341042;28;20253;-78
2023/10/17 07:04:59;;;;;;;4.03;1.90;;;10.20;1.00;;;;;;10355519;28;20196;-78
2023/10/17 07:10:36;;;;;;;3.80;1.67;;;10.30;1.00;;;;;;10355004;28;20247;-78
2023/10/17 07:16:11;;;;;;;1.95;1.35;;;;;;;;;;10326947;28;20195;-79
2023/10/17 07:21:55;;;;;;;4.00;1.90;;;;;;;;;;10330057;28;20438;-77
2023/10/17 07:27:18;;;;;;;7.53;4.10;;;;;;;;;;10310497;28;20232;-75
2023/10/17 07:32:46;;;;;;;6.40;2.20;;;12.70;1.00;;;;;;10337280;28;20224;-77
2023/10/17 07:38:07;;;;;;;4.20;1.88;;;13.10;1.00;;;;;;10333682;28;20269;-80
2023/10/17 07:43:31;;;;;;;4.25;1.80;;;13.20;1.00;;;;;;10347318;28;20236;-78
2023/10/17 07:49:02;;;;;;;3.83;1.60;;;13.20;1.00;;;;;;10347294;28;20406;-78
2023/10/17 07:54:28;;;;;;;3.88;1.77;;;11.90;1.00;;;;;;10345681;28;20192;-76
2023/10/17 07:59:51;;;;;;;5.05;1.80;;;11.30;99.90;;;;;;10349057;28;20189;-76
2023/10/17 08:05:19;;;;;;;2.33;1.50;;;11.90;99.90;;;;;;10348934;28;20308;-77
2023/10/17 08:10:45;;;;;;;3.60;1.88;;;13.50;1.00;;;;;;10348718;28;20256;-77
2023/10/17 08:16:10;;;;;;;5.90;1.92;;;14.10;1.00;;;;;;10348870;28;20204;-77
2023/10/17 08:38:15;;;;;;;3.83;2.00;;;;;;;;;;10346949;28;20507;-80
2023/10/17 08:43:36;;;;;;;5.18;2.15;;;;;;;;;;10333514;28;20190;-77
2023/10/17 08:48:58;;;;;;;2.80;1.30;;;;;;;;;;10349033;28;20275;-81
2023/10/17 08:54:20;;;;;;;4.70;1.55;;;;;;;;;;10340885;28;20208;-77
2023/10/17 09:05:17;;;;;;;5.10;2.80;;;14.10;1.00;;;;;;10353800;28;20203;-77
2023/10/17 09:10:39;;;;;;;4.93;1.67;;;13.00;1.00;;;;;;10353598;28;20197;-77
2023/10/17 09:16:13;;;;;;;6.27;1.50;;;12.30;1.00;;;;;;10350462;28;20329;-76
2023/10/17 09:21:34;;;;;;;5.10;1.47;;;11.90;1.00;;;;;;10330355;28;20211;-76
2023/10/17 09:26:59;;;;;;;2.37;1.30;;;11.60;1.00;;;;;;10351026;28;20253;-77
2023/10/17 09:32:40;;;;;;;3.07;1.40;;;11.50;99.90;;;;;;10353812;28;20203;-77
2023/10/17 09:38:03;;;;;;;4.60;1.80;;;11.40;99.90;;;;;;10353450;28;20772;-76
2023/10/17 09:43:24;;;;;;;5.60;1.50;;;11.40;99.90;;;;;;10353583;28;20206;-76
2023/10/17 09:48:48;;;;;;;2.70;1.60;;;11.40;99.90;;;;;;10352072;28;20450;-76
2023/10/17 09:54:11;;;;;;;5.97;1.63;;;11.40;99.90;;;;;;10353128;28;20205;-76
2023/10/17 09:59:41;;;;;;;3.43;1.90;;;11.50;99.90;;;;;;10352305;28;20398;-77
2023/10/17 10:05:28;;;;;;;3.73;1.43;;;11.80;48.00;;;;;;10344352;28;20191;-76
2023/10/17 10:10:55;;;;;;;4.22;1.77;;;11.90;1.00;;;;;;10350901;28;20204;-75
2023/10/17 10:16:17;;;;;;;5.65;2.05;;;12.00;1.00;;;;;;10337346;28;20409;-77
2023/10/17 10:21:58;;;;;;;5.00;1.45;;;12.30;1.00;;;;;;10348794;28;20243;-83
2023/10/17 10:27:26;;;;;;;5.10;2.20;;;12.80;1.00;;;;;;10351253;28;20227;-82
2023/10/17 10:32:50;;;;;;;1.88;0.95;;;13.50;1.00;;;;;;10350345;28;20217;-82
2023/10/17 10:38:11;;;;;;;3.90;1.02;;;13.80;1.00;;;;;;10349816;28;20240;-78
2023/10/17 10:43:32;;;;;;;3.45;1.08;;;13.80;1.00;;;;;;10351517;28;20217;-81
2023/10/17 10:48:53;;;;;;;3.78;1.80;;;13.70;1.00;;;;;;10322781;28;20228;-79
2023/10/17 10:54:14;;;;;;;2.35;1.15;;;14.40;1.00;;;;;;10348708;28;20203;-78
2023/10/17 10:59:36;;;;;;;2.15;1.00;;;14.10;1.00;;;;;;10349512;28;20203;-80
2023/10/17 11:04:58;;;;;;;2.00;0.90;;;14.50;1.00;;;;;;10326044;28;20213;-82
2023/10/17 11:10:19;;;;;;;2.95;0.90;;;14.60;1.00;;;;;;10308993;28;20405;-80
2023/10/17 11:15:43;;;;;;;3.13;0.82;;;15.20;1.00;;;;;;10308102;28;20395;-77
2023/10/17 11:21:05;;;;;;;1.60;1.10;;;;;;;;;;10353077;28;20210;-77
2023/10/17 11:26:29;;;;;;;3.13;0.82;;;18.30;99.90;;;;;;10348773;28;20532;-83
2023/10/17 11:31:51;;;;;;;3.47;1.10;;;19.00;1.00;;;;;;10334576;28;20559;-80
2023/10/17 11:37:19;;;;;;;2.58;1.27;;;;;;;;;;10348315;28;20257;-77
2023/10/17 11:42:40;;;;;;;2.65;1.08;;;;;;;;;;10348983;28;20209;-78
2023/10/17 11:48:14;;;;;;;3.20;1.27;;;;;;;;;;10308059;28;20328;-78
2023/10/17 11:53:37;;;;;;;3.42;1.00;;;21.40;1.00;;;;;;10321187;28;20273;-77
2023/10/17 11:59:01;;;;;;;5.45;2.60;;;21.50;1.00;;;;;;10315655;28;20205;-77
2023/10/17 12:04:25;;;;;;;1.63;1.00;;;21.10;1.00;;;;;;10334582;28;20236;-76
2023/10/17 12:09:47;;;;;;;3.42;1.23;;;;;;;;;;10345018;28;20230;-79
2023/10/17 12:15:13;;;;;;;2.47;1.23;;;;;;;;;;10347257;28;20395;-78
2023/10/17 12:20:40;;;;;;;2.70;1.10;;;;;;;;;;10344227;28;20237;-78
2023/10/17 12:26:03;;;;;;;2.80;1.23;;;;;;;;;;10351117;28;20209;-77
2023/10/17 12:31:29;;;;;;;3.22;1.40;;;;;;;;;;10339125;28;20678;-76
2023/10/17 12:36:51;;;;;;;3.88;1.50;;;;;;;;;;10352612;28;20218;-77
2023/10/17 12:42:12;;;;;;;2.45;1.63;;;;;;;;;;10353630;28;20202;-77
2023/10/17 12:47:34;;;;;;;3.38;1.70;;;;;;;;;;10351169;28;20398;-76
2023/10/17 12:52:56;;;;;;;3.05;1.25;;;;;;;;;;10331258;28;20202;-79
2023/10/17 12:58:25;;;;;;;3.78;1.20;;;18.40;1.00;;;;;;10311949;28;20497;-77
2023/10/17 13:03:53;;;;;;;2.92;1.13;;;;;;;;;;10352812;28;20193;-78
2023/10/17 13:09:14;;;;;;;3.50;2.38;;;17.20;1.00;;;;;;10353163;28;20221;-77
2023/10/17 13:14:36;;;;;;;3.50;1.38;;;17.30;99.90;;;;;;10325206;28;20200;-76
2023/10/17 13:19:57;;;;;;;1.95;0.82;;;16.30;1.00;;;;;;10334105;28;20225;-76
2023/10/17 13:25:19;;;;;;;2.80;1.20;;;15.50;1.00;;;;;;10354325;28;20198;-77
2023/10/17 13:30:40;;;;;;;4.75;1.35;;;;;;;;;;10352866;28;20229;-76
2023/10/17 13:36:02;;;;;;;2.60;1.35;;;14.50;1.00;;;;;;10352132;28;20248;-78
2023/10/17 13:41:25;;;;;;;5.03;1.37;;;;;;;;;;10353943;28;20190;-79
2023/10/17 13:46:48;;;;;;;3.63;1.10;;;14.00;1.00;;;;;;10352324;28;20225;-77
2023/10/17 13:52:10;;;;;;;2.93;1.20;;;13.50;1.00;;;;;;10351321;28;20203;-79
2023/10/17 13:57:31;;;;;;;3.23;1.30;;;13.20;1.00;;;;;;10351797;28;20195;-77
2023/10/17 14:02:53;;;;;;;7.20;2.40;;;;;;;;;;10352046;28;20202;-77
2023/10/17 14:08:16;;;;;;;4.00;0.93;;;12.80;1.00;;;;;;10352513;28;20290;-77
2023/10/17 14:13:38;;;;;;;2.27;1.10;;;12.60;1.00;;;;;;10337969;28;20191;-77
2023/10/17 14:19:13;;;;;;;2.47;1.20;;;12.60;1.00;;;;;;10329862;28;20508;-77
2023/10/17 14:30:16;;;;;;;2.97;1.10;;;12.30;99.90;;;;;;10351544;28;20244;-77
2023/10/17 14:35:37;;;;;;;4.00;1.60;;;12.00;1.00;;;;;;10351254;28;20225;-77
2023/10/17 14:41:00;;;;;;;6.37;1.43;;;11.90;99.90;;;;;;10351609;28;20198;-78
2023/10/17 14:46:21;;;;;;;4.80;1.40;;;11.90;99.90;;;;;;10350489;28;20191;-77
2023/10/17 14:51:43;;;;;;;2.83;1.27;;;11.80;99.90;;;;;;10336492;28;20203;-77
2023/10/17 14:57:09;;;;;;;2.53;1.20;;;11.70;1.00;;;;;;10327577;28;20374;-76
2023/10/17 15:02:30;;;;;;;3.97;1.57;;;11.60;1.00;;;;;;10346403;28;20199;-76
2023/10/17 15:07:52;;;;;;;5.90;2.07;;;11.40;1.00;;;;;;10352225;28;20272;-76
2023/10/17 15:13:13;;;;;;;7.97;3.20;;;11.40;1.00;;;;;;10353216;28;20210;-77
2023/10/17 15:18:34;;;;;;;4.30;1.60;;;11.20;1.00;;;;;;10348609;28;20363;-77
2023/10/17 15:23:55;;;;;;;3.00;1.50;;;11.00;1.00;;;;;;10352879;28;20211;-76
2023/10/17 15:29:16;;;;;;;4.00;2.20;;;10.80;1.00;;;;;;10353226;28;20251;-77
2023/10/17 15:34:38;;;;;;;7.10;2.33;;;10.70;1.00;;;;;;10354546;28;20481;-76
2023/10/17 15:40:01;;;;;;;5.43;2.67;;;10.50;19.90;;;;;;10353859;28;20466;-77
2023/10/17 15:45:22;;;;;;;6.87;3.30;;;10.40;99.90;;;;;;10353070;28;20222;-76
2023/10/17 15:50:44;;;;;;;15.90;6.20;;;10.40;99.90;;;;;;10339586;28;20534;-77
2023/10/17 15:56:06;;;;;;;13.17;6.27;;;10.40;1.00;;;;;;10354146;28;20203;-76
2023/10/17 16:01:27;;;;;;;7.53;4.30;;;10.40;1.00;;;;;;10360482;28;20266;-77
2023/10/17 16:06:51;;;;;;;11.47;4.70;;;10.40;1.00;;;;;;10362373;28;20206;-77
2023/10/17 16:12:14;;;;;;;13.57;6.57;;;10.40;1.00;;;;;;10361503;28;20218;-77
2023/10/17 16:17:37;;;;;;;25.50;10.40;;;10.40;1.00;;;;;;10361308;28;20198;-77
2023/10/17 16:22:59;;;;;;;20.67;9.23;;;10.40;1.00;;;;;;10323502;28;20204;-77
2023/10/17 16:28:20;;;;;;;8.50;4.33;;;10.30;1.00;;;;;;10346580;28;20314;-76
2023/10/17 16:33:41;;;;;;;9.17;4.80;;;10.30;1.00;;;;;;10360911;28;20267;-77
2023/10/17 16:39:02;;;;;;;11.60;5.67;;;10.20;1.00;;;;;;10360952;28;20317;-78
2023/10/17 16:44:24;;;;;;;11.40;6.67;;;10.30;1.00;;;;;;10360666;28;20191;-77
2023/10/17 16:49:45;;;;;;;12.80;7.03;;;10.20;1.00;;;;;;10361274;28;20231;-78
2023/10/17 16:55:09;;;;;;;21.03;7.20;;;10.10;1.00;;;;;;10361041;28;20193;-77
2023/10/17 17:00:30;;;;;;;23.37;8.57;;;10.10;1.00;;;;;;10320556;28;20201;-76
2023/10/17 17:05:52;;;;;;;14.40;4.67;;;10.00;1.00;;;;;;10322969;28;20196;-77
2023/10/17 17:11:13;;;;;;;14.40;5.60;;;9.80;1.00;;;;;;10359326;28;20220;-77
2023/10/17 17:16:35;;;;;;;8.97;2.80;;;9.60;99.90;;;;;;10359805;28;20489;-76
2023/10/17 17:21:56;;;;;;;5.97;3.20;;;9.50;99.90;;;;;;10332310;28;20485;-76
2023/10/17 17:27:19;;;;;;;6.13;3.17;;;9.40;1.00;;;;;;10332198;28;20249;-77
2023/10/17 17:32:40;;;;;;;11.47;4.80;;;9.20;1.00;;;;;;10358785;28;20189;-76
2023/10/17 17:38:02;;;;;;;6.03;3.30;;;9.00;1.00;;;;;;10358768;28;20228;-76
2023/10/17 17:43:25;;;;;;;9.43;2.67;;;9.00;1.00;;;;;;10357933;28;20214;-76
2023/10/17 17:48:47;;;;;;;11.63;3.87;;;8.90;99.90;;;;;;10357745;28;20233;-76
2023/10/17 17:54:08;;;;;;;15.93;7.47;;;8.80;3.10;;;;;;10358552;28;20192;-76
2023/10/17 17:59:29;;;;;;;19.10;8.37;;;8.70;1.00;;;;;;10358541;28;20212;-77
2023/10/17 18:04:50;;;;;;;48.80;23.97;;;8.50;1.00;;;;;;10358058;28;20202;-76
2023/10/17 18:10:14;;;;;;;19.80;10.83;;;8.50;99.90;;;;;;10356634;28;20254;-76
2023/10/17 18:15:36;;;;;;;25.50;16.17;;;;;;;;;;10357516;28;20361;-77
2023/10/17 18:21:08;;;;;;;8.30;4.77;;;8.20;1.00;;;;;;10337647;28;20287;-77
2023/10/17 18:26:31;;;;;;;8.37;3.20;;;8.30;1.00;;;;;;10341020;28;20474;-76
2023/10/17 18:31:54;;;;;;;7.10;2.70;;;8.20;1.00;;;;;;10357018;28;20191;-76
2023/10/17 18:37:15;;;;;;;6.97;2.90;;;8.10;1.00;;;;;;10356070;28;20543;-76
2023/10/17 18:42:38;;;;;;;5.97;2.60;;;8.10;1.00;;;;;;10356056;28;20193;-76
2023/10/17 18:47:59;;;;;;;5.07;2.53;;;8.20;1.00;;;;;;10356415;28;20230;-76
2023/10/17 18:53:21;;;;;;;16.67;8.80;;;8.20;1.00;;;;;;10355774;28;20199;-77
2023/10/17 18:58:42;;;;;;;13.47;6.80;;;8.20;1.00;;;;;;10356012;28;20192;-76
2023/10/17 19:04:05;;;;;;;9.20;4.10;;;8.20;1.00;;;;;;10355743;28;20211;-76
2023/10/17 19:09:27;;;;;;;6.40;3.40;;;8.20;1.00;;;;;;10340817;28;20227;-76
2023/10/17 19:14:48;;;;;;;6.67;3.03;;;8.10;1.00;;;;;;10354301;28;20246;-75
2023/10/17 19:20:10;;;;;;;5.83;2.73;;;8.00;1.00;;;;;;10339549;28;20227;-76
2023/10/17 19:25:31;;;;;;;7.07;2.83;;;8.00;1.00;;;;;;10329983;28;20384;-76
2023/10/17 19:30:52;;;;;;;5.13;2.07;;;7.90;1.00;;;;;;10354376;28;20218;-76
2023/10/17 19:36:14;;;;;;;6.80;2.13;;;8.00;1.00;;;;;;10353276;28;20304;-76
2023/10/17 19:41:35;;;;;;;6.70;2.87;;;7.90;1.00;;;;;;10353437;28;20438;-77
2023/10/17 19:46:58;;;;;;;7.23;2.63;;;8.00;1.00;;;;;;10334601;28;20220;-76
2023/10/17 19:52:19;;;;;;;5.27;3.03;;;7.90;1.00;;;;;;10353387;28;20207;-76
2023/10/17 19:57:41;;;;;;;40.03;19.67;;;8.00;1.00;;;;;;10353767;28;20185;-76
2023/10/17 20:03:03;;;;;;;9.00;5.07;;;8.00;1.00;;;;;;10354317;28;20349;-76
2023/10/17 20:08:24;;;;;;;4.97;2.93;;;8.00;1.00;;;;;;10353908;28;20526;-76
2023/10/17 20:13:45;;;;;;;7.77;2.70;;;8.00;1.00;;;;;;10339570;28;20536;-76
2023/10/17 20:19:07;;;;;;;5.70;2.77;;;8.10;1.00;;;;;;10347756;28;20204;-75
2023/10/17 20:24:28;;;;;;;5.40;2.73;;;8.00;1.00;;;;;;10332507;28;20194;-76
2023/10/17 20:29:50;;;;;;;5.67;2.30;;;8.00;1.00;;;;;;10353138;28;20219;-76
2023/10/17 20:35:11;;;;;;;5.57;2.57;;;8.00;1.00;;;;;;10349072;28;20489;-76
2023/10/17 20:40:34;;;;;;;4.60;2.33;;;8.00;1.00;;;;;;10353014;28;20274;-76
2023/10/17 20:45:59;;;;;;;23.17;11.23;;;8.00;1.00;;;;;;10355653;28;20381;-76
2023/10/17 20:51:20;;;;;;;14.60;7.93;;;8.00;1.00;;;;;;10359859;28;20229;-76
2023/10/17 20:56:43;;;;;;;3.97;2.50;;;8.00;1.00;;;;;;10360920;28;20285;-76
2023/10/17 21:02:04;;;;;;;5.03;2.80;;;8.00;1.00;;;;;;10319449;28;20205;-75
2023/10/17 21:07:25;;;;;;;5.27;2.47;;;8.10;1.00;;;;;;10319206;28;20480;-76
2023/10/17 21:12:46;;;;;;;6.60;2.97;;;8.10;1.00;;;;;;10353814;28;20408;-77
2023/10/17 21:18:11;;;;;;;6.67;2.80;;;8.20;1.00;;;;;;10359753;28;20202;-76
2023/10/17 21:23:36;;;;;;;9.90;3.20;;;8.20;1.00;;;;;;10374802;28;20207;-76
2023/10/17 21:28:57;;;;;;;4.40;2.57;;;8.20;1.00;;;;;;10358910;28;20223;-77
2023/10/17 21:34:18;;;;;;;7.83;3.00;;;8.30;1.00;;;;;;10318348;28;20498;-76
2023/10/17 21:39:39;;;;;;;6.33;2.50;;;8.30;1.00;;;;;;10320662;28;20249;-77
2023/10/17 21:45:03;;;;;;;5.10;2.93;;;8.30;1.00;;;;;;10362853;28;20190;-76
2023/10/17 21:50:24;;;;;;;5.70;3.33;;;8.40;1.00;;;;;;10344189;28;20416;-76
2023/10/17 21:55:45;;;;;;;5.83;3.53;;;8.30;1.00;;;;;;10357508;28;20200;-77
2023/10/17 22:01:10;;;;;;;7.73;3.13;;;8.30;1.00;;;;;;10357170;28;20195;-76
2023/10/17 22:06:31;;;;;;;8.47;3.37;;;8.30;1.00;;;;;;10358670;28;20200;-77
2023/10/17 22:11:52;;;;;;;5.23;3.00;;;8.30;1.00;;;;;;10357009;28;20294;-76
2023/10/17 22:17:14;;;;;;;7.13;3.07;;;8.20;1.00;;;;;;10357388;28;20191;-76
2023/10/17 22:22:37;;;;;;;7.30;3.50;;;8.10;1.00;;;;;;10355277;28;20274;-76
2023/10/17 22:27:59;;;;;;;8.00;3.70;;;8.20;1.00;;;;;;10357172;28;20214;-77
2023/10/17 22:33:20;;;;;;;9.57;3.57;;;8.20;1.00;;;;;;10357305;28;20198;-77
2023/10/17 22:38:41;;;;;;;5.17;2.60;;;8.30;1.00;;;;;;10357150;28;20223;-76
2023/10/17 22:44:02;;;;;;;5.67;3.00;;;8.20;1.00;;;;;;10356648;28;20268;-77
2023/10/17 22:49:23;;;;;;;7.50;3.30;;;8.30;1.00;;;;;;10355290;28;20242;-76
2023/10/17 22:54:44;;;;;;;10.63;3.20;;;8.20;1.00;;;;;;10355779;28;20191;-77
2023/10/17 23:00:08;;;;;;;6.33;3.10;;;8.20;1.00;;;;;;10355864;28;20192;-77
2023/10/17 23:05:29;;;;;;;4.73;3.10;;;8.10;1.00;;;;;;10356654;28;20203;-76
2023/10/17 23:10:53;;;;;;;5.73;2.80;;;7.90;1.00;;;;;;10340063;28;20537;-77
2023/10/17 23:16:16;;;;;;;3.60;2.50;;;7.80;1.00;;;;;;10355645;28;20192;-76
2023/10/17 23:21:37;;;;;;;4.67;2.77;;;7.80;1.00;;;;;;10338546;28;20368;-77
2023/10/17 23:26:59;;;;;;;6.87;3.07;;;7.70;1.00;;;;;;10315034;28;20199;-76
2023/10/17 23:32:20;;;;;;;5.13;2.97;;;7.80;5.00;;;;;;10318199;28;20227;-74
2023/10/17 23:37:42;;;;;;;8.07;3.20;;;7.70;99.90;;;;;;10354828;28;20257;-73
2023/10/17 23:43:05;;;;;;;5.13;2.77;;;7.80;30.40;;;;;;10354720;28;20194;-77
2023/10/17 23:48:26;;;;;;;4.27;2.77;;;7.70;96.50;;;;;;10353356;28;20225;-78
2023/10/17 23:53:48;;;;;;;4.30;2.70;;;7.70;99.90;;;;;;10353582;28;20320;-77
2023/10/17 23:59:09;;;;;;;5.23;2.93;;;7.60;99.90;;;;;;10353783;28;20249;-77
